Time;durP1;ratioP1;P1;durP2;ratioP2;P2;SDS_P1;SDS_P2;PMS_P1;PMS_P2;Temp;Humidity;BMP_temperature;BMP_pressure;BME280_temperature;BME280_humidity;BME280_pressure;Samples;Min_cycle;Max_cycle;Signal;HPM_P1;HPM_P2
2021/09/19 00:01:16;;;;;;;0.45;0.40;;;14.90;12.40;;;;;;5096726;28;20046;-80
2021/09/19 00:03:42;;;;;;;1.95;0.50;;;14.90;21.40;;;;;;5095826;28;20064;-80
2021/09/19 00:06:07;;;;;;;0.90;0.55;;;15.00;5.10;;;;;;5097024;28;20558;-80
2021/09/19 00:08:34;;;;;;;3.20;0.50;;;14.90;6.00;;;;;;5095895;28;20047;-80
2021/09/19 00:11:00;;;;;;;1.10;0.50;;;15.00;3.90;;;;;;5097037;28;20044;-80
2021/09/19 00:13:26;;;;;;;1.70;0.68;;;15.00;1.00;;;;;;5097020;28;20035;-80
2021/09/19 00:15:52;;;;;;;2.15;0.60;;;15.00;1.00;;;;;;5095769;28;20032;-80
2021/09/19 00:18:19;;;;;;;2.80;0.52;;;15.00;7.30;;;;;;5096887;28;20119;-81
2021/09/19 00:20:45;;;;;;;1.15;0.60;;;15.00;5.80;;;;;;5096476;28;20288;-80
2021/09/19 00:23:11;;;;;;;1.75;1.02;;;15.00;9.60;;;;;;5096838;28;20068;-80
2021/09/19 00:25:37;;;;;;;2.80;0.77;;;14.90;8.70;;;;;;5097278;28;20043;-80
2021/09/19 00:28:04;;;;;;;3.95;1.35;;;14.90;9.70;;;;;;5097067;28;20043;-80
2021/09/19 00:30:30;;;;;;;2.28;0.57;;;14.90;8.80;;;;;;5096517;28;20066;-80
2021/09/19 00:32:56;;;;;;;1.08;0.50;;;14.90;17.10;;;;;;5095074;28;20390;-80
2021/09/19 00:35:21;;;;;;;3.13;1.13;;;14.90;15.90;;;;;;5095581;28;20035;-80
2021/09/19 00:37:47;;;;;;;1.23;0.70;;;15.00;18.20;;;;;;5096850;28;20051;-80
2021/09/19 00:40:13;;;;;;;1.77;0.80;;;14.90;16.50;;;;;;5096752;28;20036;-80
2021/09/19 00:42:40;;;;;;;2.47;0.70;;;15.00;18.40;;;;;;5095371;28;20028;-80
2021/09/19 00:45:21;;;;;;;2.38;0.57;;;15.00;19.50;;;;;;5096503;28;20067;-80
2021/09/19 00:47:47;;;;;;;3.75;1.00;;;15.00;22.10;;;;;;5096298;28;20040;-80
2021/09/19 00:50:15;;;;;;;2.00;0.57;;;14.90;26.20;;;;;;5096545;28;20486;-80
2021/09/19 00:52:43;;;;;;;1.95;0.65;;;14.90;32.60;;;;;;5096499;28;20036;-80
2021/09/19 00:55:09;;;;;;;1.05;0.60;;;14.90;30.40;;;;;;5095758;28;20104;-80
2021/09/19 00:57:44;;;;;;;2.08;0.50;;;15.00;31.90;;;;;;5096489;28;20117;-80
2021/09/19 01:00:12;;;;;;;1.23;0.63;;;15.00;29.40;;;;;;5094893;28;20039;-80
2021/09/19 01:02:38;;;;;;;2.83;0.65;;;15.00;32.50;;;;;;5095949;28;20035;-80
2021/09/19 01:05:07;;;;;;;1.65;0.50;;;15.00;18.40;;;;;;5096030;28;20036;-81
2021/09/19 01:07:33;;;;;;;1.52;0.50;;;15.10;26.20;;;;;;5095981;28;20044;-81
2021/09/19 01:09:58;;;;;;;1.85;0.50;;;15.00;23.90;;;;;;5095905;28;20494;-80
2021/09/19 01:12:25;;;;;;;1.65;0.50;;;15.10;28.10;;;;;;5095898;28;20077;-80
2021/09/19 01:14:51;;;;;;;1.15;0.50;;;15.10;33.70;;;;;;5094467;28;20042;-81
2021/09/19 01:17:18;;;;;;;0.43;0.30;;;15.00;36.30;;;;;;5095571;28;20118;-80
2021/09/19 01:19:46;;;;;;;1.77;0.40;;;15.00;22.20;;;;;;5095367;28;20102;-81
2021/09/19 01:22:13;;;;;;;1.45;0.75;;;15.00;22.40;;;;;;5095935;28;20089;-80
2021/09/19 01:24:39;;;;;;;0.77;0.60;;;15.00;20.30;;;;;;5094335;28;20032;-80
2021/09/19 01:27:06;;;;;;;2.35;0.65;;;15.10;21.50;;;;;;5095362;28;20594;-80
2021/09/19 01:29:33;;;;;;;2.47;0.80;;;15.00;30.60;;;;;;5095508;28;20119;-80
2021/09/19 01:32:00;;;;;;;1.45;0.98;;;14.90;27.70;;;;;;5095272;28;20040;-80
2021/09/19 01:34:26;;;;;;;2.50;0.80;;;14.90;18.70;;;;;;5095134;28;20051;-80
2021/09/19 01:36:52;;;;;;;6.35;0.70;;;14.90;5.10;;;;;;5094048;28;20035;-80
2021/09/19 01:39:19;;;;;;;3.50;0.90;;;14.90;4.60;;;;;;5095103;28;20051;-80
2021/09/19 01:41:47;;;;;;;2.58;0.70;;;14.80;6.40;;;;;;5093961;28;20039;-80
2021/09/19 01:44:13;;;;;;;2.67;1.05;;;14.80;4.50;;;;;;5093294;28;20063;-80
2021/09/19 01:46:39;;;;;;;2.10;0.80;;;14.70;4.90;;;;;;5094649;28;20066;-80
2021/09/19 01:49:08;;;;;;;4.53;0.70;;;14.70;12.90;;;;;;5095127;28;20054;-80
2021/09/19 01:51:35;;;;;;;2.47;0.70;;;14.70;13.20;;;;;;5095206;28;20085;-80
2021/09/19 01:54:01;;;;;;;5.10;0.80;;;14.70;1.00;;;;;;5094817;28;20036;-80
2021/09/19 01:56:27;;;;;;;3.90;1.08;;;14.60;1.00;;;;;;5094729;28;20552;-80
2021/09/19 01:58:54;;;;;;;1.27;0.70;;;14.60;7.00;;;;;;5095093;28;20043;-80
2021/09/19 02:01:21;;;;;;;2.55;0.70;;;14.60;1.00;;;;;;5094683;28;20043;-80
2021/09/19 02:03:49;;;;;;;4.40;0.82;;;14.60;6.00;;;;;;5095246;28;20036;-80
2021/09/19 02:06:15;;;;;;;3.33;0.77;;;14.50;11.00;;;;;;5094839;28;20055;-80
2021/09/19 02:08:41;;;;;;;5.47;1.42;;;14.60;8.40;;;;;;5095100;28;20067;-80
2021/09/19 02:11:10;;;;;;;4.80;0.85;;;14.60;20.80;;;;;;5095136;28;20511;-80
2021/09/19 02:13:37;;;;;;;3.50;1.08;;;14.60;38.50;;;;;;5095246;28;20036;-80
2021/09/19 02:16:04;;;;;;;4.07;0.90;;;14.50;30.00;;;;;;5093642;28;20049;-80
2021/09/19 02:18:31;;;;;;;4.65;0.90;;;14.40;55.30;;;;;;5095350;28;20036;-80
2021/09/19 02:20:57;;;;;;;2.50;0.73;;;14.30;68.60;;;;;;5093709;28;20032;-80
2021/09/19 02:23:23;;;;;;;3.28;0.80;;;14.20;60.10;;;;;;5094976;28;20046;-80
2021/09/19 02:25:49;;;;;;;2.88;0.82;;;14.30;42.70;;;;;;5094198;28;20028;-80
2021/09/19 02:28:16;;;;;;;3.13;0.90;;;14.30;49.50;;;;;;5093292;28;20041;-80
2021/09/19 02:30:42;;;;;;;3.67;0.82;;;14.40;51.70;;;;;;5094871;28;20115;-80
2021/09/19 02:33:08;;;;;;;2.72;0.90;;;14.40;28.80;;;;;;5093547;28;20064;-80
2021/09/19 02:35:34;;;;;;;2.78;0.73;;;14.50;31.80;;;;;;5094575;28;20066;-80
2021/09/19 02:38:00;;;;;;;3.15;0.70;;;14.50;20.70;;;;;;5094932;28;20047;-80
2021/09/19 02:40:26;;;;;;;6.38;0.68;;;14.60;27.50;;;;;;5094495;28;20040;-80
2021/09/19 02:42:53;;;;;;;1.83;0.77;;;14.60;22.60;;;;;;5093512;28;20100;-80
2021/09/19 02:45:20;;;;;;;2.92;0.90;;;14.70;27.70;;;;;;5094668;28;20093;-80
2021/09/19 02:47:46;;;;;;;3.03;0.85;;;14.80;24.10;;;;;;5094220;28;20528;-80
2021/09/19 02:50:17;;;;;;;1.20;0.65;;;14.80;1.00;;;;;;5094262;28;20371;-81
2021/09/19 02:52:43;;;;;;;3.42;0.88;;;14.80;12.30;;;;;;5093181;28;20043;-81
2021/09/19 02:55:11;;;;;;;2.90;0.60;;;14.80;16.10;;;;;;5094721;28;20023;-81
2021/09/19 02:57:37;;;;;;;2.38;0.77;;;14.80;24.50;;;;;;5098537;28;20123;-81
2021/09/19 03:00:07;;;;;;;1.98;0.60;;;14.80;9.60;;;;;;5099135;28;20042;-81
2021/09/19 03:02:33;;;;;;;3.92;0.68;;;14.80;17.00;;;;;;5097386;28;20066;-81
2021/09/19 03:04:59;;;;;;;4.53;0.70;;;14.70;19.40;;;;;;5098661;28;20032;-81
2021/09/19 03:07:25;;;;;;;3.83;0.75;;;14.70;11.10;;;;;;5098157;28;20039;-81
2021/09/19 03:09:51;;;;;;;6.53;0.95;;;14.70;7.60;;;;;;5096877;28;20387;-81
2021/09/19 03:12:17;;;;;;;0.55;0.43;;;14.70;1.00;;;;;;5097858;28;20028;-80
2021/09/19 03:14:42;;;;;;;3.70;0.95;;;14.70;3.40;;;;;;5098147;28;20062;-80
2021/09/19 03:17:08;;;;;;;7.22;1.05;;;14.70;3.60;;;;;;5097997;28;20028;-80
2021/09/19 03:19:34;;;;;;;1.50;0.60;;;14.70;11.30;;;;;;5097980;28;20040;-80
2021/09/19 03:22:00;;;;;;;5.03;0.80;;;14.60;24.20;;;;;;5097989;28;20040;-80
2021/09/19 03:24:26;;;;;;;3.72;0.80;;;14.50;17.80;;;;;;5097901;28;20482;-80
2021/09/19 03:26:51;;;;;;;4.30;1.08;;;14.50;13.20;;;;;;5097767;28;20099;-80
2021/09/19 03:29:19;;;;;;;3.90;0.70;;;14.50;10.30;;;;;;5096495;28;20510;-80
2021/09/19 03:31:44;;;;;;;3.90;0.98;;;14.40;13.40;;;;;;5097649;28;20491;-80
2021/09/19 03:34:10;;;;;;;4.60;0.85;;;14.50;8.90;;;;;;5097442;28;20032;-80
2021/09/19 03:36:36;;;;;;;3.72;0.95;;;14.50;17.40;;;;;;5097452;28;20082;-80
2021/09/19 03:39:02;;;;;;;2.20;0.70;;;14.40;5.80;;;;;;5097658;28;20127;-80
2021/09/19 03:41:28;;;;;;;1.90;0.73;;;14.40;3.30;;;;;;5097372;28;20101;-80
2021/09/19 03:43:56;;;;;;;4.25;0.90;;;14.40;16.80;;;;;;5096574;28;20032;-80
2021/09/19 03:46:22;;;;;;;2.10;0.68;;;14.30;24.60;;;;;;5097056;28;20036;-80
2021/09/19 03:48:47;;;;;;;3.28;1.00;;;14.30;4.40;;;;;;5097445;28;20117;-80
2021/09/19 03:51:13;;;;;;;3.08;0.88;;;14.30;7.30;;;;;;5097434;28;20032;-80
2021/09/19 03:53:39;;;;;;;2.85;0.73;;;14.30;12.10;;;;;;5097404;28;20040;-80
2021/09/19 03:56:06;;;;;;;3.13;0.63;;;14.40;11.90;;;;;;5097335;28;20085;-80
2021/09/19 03:58:32;;;;;;;3.10;0.60;;;14.40;19.10;;;;;;5096100;28;20399;-81
2021/09/19 04:00:57;;;;;;;4.97;0.90;;;14.40;11.50;;;;;;5097064;28;20036;-80
2021/09/19 04:03:23;;;;;;;3.67;0.85;;;14.40;10.50;;;;;;5096922;28;20063;-80
2021/09/19 04:05:49;;;;;;;4.63;0.93;;;14.40;21.70;;;;;;5096731;28;20116;-80
2021/09/19 04:08:15;;;;;;;2.70;0.60;;;14.30;23.70;;;;;;5095785;28;20040;-80
2021/09/19 04:10:41;;;;;;;3.80;0.60;;;14.30;31.20;;;;;;5097389;28;20039;-80
2021/09/19 04:13:07;;;;;;;3.85;0.70;;;14.20;26.20;;;;;;5096994;28;20605;-80
2021/09/19 04:15:33;;;;;;;3.15;0.93;;;14.20;22.40;;;;;;5095467;28;20077;-80
2021/09/19 04:17:59;;;;;;;3.25;0.90;;;14.20;37.50;;;;;;5097009;28;20495;-80
2021/09/19 04:20:24;;;;;;;2.78;0.77;;;14.20;22.20;;;;;;5096560;28;20039;-80
2021/09/19 04:22:50;;;;;;;2.60;0.70;;;14.20;35.80;;;;;;5096549;28;20044;-80
2021/09/19 04:25:16;;;;;;;2.40;0.80;;;14.20;29.50;;;;;;5096736;28;20059;-81
2021/09/19 04:27:42;;;;;;;6.75;1.10;;;14.20;29.10;;;;;;5096516;28;20123;-81
2021/09/19 04:30:09;;;;;;;2.30;0.60;;;14.20;36.20;;;;;;5096556;28;20089;-81
2021/09/19 04:32:36;;;;;;;3.92;0.70;;;14.10;45.60;;;;;;5095286;28;20032;-80
2021/09/19 04:35:02;;;;;;;4.00;0.80;;;14.20;35.50;;;;;;5096330;28;20082;-81
2021/09/19 04:37:28;;;;;;;2.88;0.77;;;14.20;35.90;;;;;;5096744;28;20036;-81
2021/09/19 04:39:54;;;;;;;1.67;0.60;;;14.30;17.80;;;;;;5096540;28;20390;-81
2021/09/19 04:42:22;;;;;;;1.92;0.85;;;14.40;28.80;;;;;;5096324;28;20031;-80
2021/09/19 04:44:48;;;;;;;6.55;0.90;;;14.30;42.10;;;;;;5096402;28;20093;-81
2021/09/19 04:47:14;;;;;;;2.35;0.65;;;14.30;40.70;;;;;;5096217;28;20036;-81
2021/09/19 04:49:40;;;;;;;6.38;1.42;;;14.20;45.90;;;;;;5096345;28;20043;-81
2021/09/19 04:52:06;;;;;;;2.22;0.65;;;14.20;56.00;;;;;;5096091;28;20369;-81
2021/09/19 04:54:33;;;;;;;2.85;0.80;;;14.30;52.60;;;;;;5096237;28;20044;-81
2021/09/19 04:56:59;;;;;;;1.85;0.77;;;14.40;59.10;;;;;;5095857;28;20042;-80
2021/09/19 04:59:25;;;;;;;1.85;0.80;;;14.30;60.10;;;;;;5094818;28;20117;-80
2021/09/19 05:01:51;;;;;;;3.33;0.90;;;14.30;54.30;;;;;;5095981;28;20035;-81
2021/09/19 05:04:17;;;;;;;2.97;0.90;;;14.20;70.00;;;;;;5096013;28;20586;-80
2021/09/19 05:06:44;;;;;;;2.15;1.05;;;14.20;71.50;;;;;;5096252;28;20048;-80
2021/09/19 05:09:11;;;;;;;2.05;0.65;;;14.20;79.70;;;;;;5095873;28;20407;-81
2021/09/19 05:11:36;;;;;;;2.60;0.85;;;14.20;77.30;;;;;;5095117;28;20032;-80
2021/09/19 05:14:03;;;;;;;5.70;1.45;;;14.20;79.10;;;;;;5096160;28;20432;-80
2021/09/19 05:16:28;;;;;;;1.73;0.90;;;14.20;87.10;;;;;;5096219;28;20463;-80
2021/09/19 05:18:57;;;;;;;2.28;0.63;;;14.20;71.20;;;;;;5094619;28;20040;-80
2021/09/19 05:21:24;;;;;;;2.28;0.80;;;14.30;51.40;;;;;;5096183;28;20032;-81
2021/09/19 05:23:50;;;;;;;1.83;0.65;;;14.30;49.20;;;;;;5095671;28;20034;-80
2021/09/19 05:26:17;;;;;;;7.63;0.70;;;14.30;51.30;;;;;;5096099;28;20047;-80
2021/09/19 05:28:43;;;;;;;1.52;0.60;;;14.40;69.10;;;;;;5095872;28;20131;-80
2021/09/19 05:31:09;;;;;;;1.52;0.60;;;14.40;61.50;;;;;;5095881;28;20122;-80
2021/09/19 05:33:35;;;;;;;2.80;0.68;;;14.40;68.30;;;;;;5095763;28;20043;-80
2021/09/19 05:36:01;;;;;;;0.68;0.50;;;14.40;42.00;;;;;;5095362;28;20047;-80
2021/09/19 05:38:27;;;;;;;2.50;0.60;;;14.50;58.10;;;;;;5095982;28;20044;-80
2021/09/19 05:40:52;;;;;;;0.88;0.45;;;14.40;84.60;;;;;;5095965;28;20044;-80
2021/09/19 05:43:18;;;;;;;0.77;0.47;;;14.30;87.30;;;;;;5095278;28;20031;-80
2021/09/19 05:45:44;;;;;;;3.33;0.50;;;14.40;94.30;;;;;;5095358;28;20036;-81
2021/09/19 05:48:10;;;;;;;2.00;0.70;;;14.30;99.90;;;;;;5095244;28;20071;-81
2021/09/19 05:50:36;;;;;;;4.50;0.70;;;14.30;99.90;;;;;;5095418;28;20035;-81
2021/09/19 05:53:02;;;;;;;3.58;0.55;;;14.40;99.90;;;;;;5095492;28;20506;-83
2021/09/19 05:55:28;;;;;;;1.90;0.65;;;14.30;96.00;;;;;;5094075;28;20036;-80
2021/09/19 05:57:54;;;;;;;1.70;0.60;;;14.30;99.90;;;;;;5095201;28;20067;-81
2021/09/19 06:00:19;;;;;;;0.35;0.30;;;14.40;78.60;;;;;;5095194;28;20063;-81
2021/09/19 06:02:45;;;;;;;1.23;0.50;;;14.50;80.30;;;;;;5094019;28;20039;-81
2021/09/19 06:05:11;;;;;;;2.60;0.60;;;14.50;96.00;;;;;;5094950;28;20050;-81
2021/09/19 06:07:38;;;;;;;1.85;0.70;;;14.50;91.20;;;;;;5094888;28;20566;-81
2021/09/19 06:10:05;;;;;;;1.75;0.50;;;14.50;96.90;;;;;;5094883;28;20074;-81
2021/09/19 06:12:31;;;;;;;1.23;0.47;;;14.50;84.00;;;;;;5094765;28;20119;-81
2021/09/19 06:14:57;;;;;;;7.05;1.10;;;14.50;93.40;;;;;;5094980;28;20062;-81
2021/09/19 06:17:23;;;;;;;1.02;0.40;;;14.50;91.60;;;;;;5093223;28;20161;-80
2021/09/19 06:19:50;;;;;;;2.55;0.50;;;14.50;72.70;;;;;;5094716;28;20079;-81
2021/09/19 06:22:17;;;;;;;1.45;0.52;;;14.50;65.20;;;;;;5094518;28;20055;-80
2021/09/19 06:24:43;;;;;;;1.83;0.40;;;14.60;30.20;;;;;;5094427;28;20490;-80
2021/09/19 06:27:12;;;;;;;2.90;0.50;;;14.60;42.10;;;;;;5093065;28;20036;-80
2021/09/19 06:29:42;;;;;;;1.45;0.60;;;14.60;48.50;;;;;;5094678;28;20045;-80
2021/09/19 06:32:08;;;;;;;4.22;1.00;;;14.60;50.40;;;;;;5093725;28;20486;-80
2021/09/19 06:34:38;;;;;;;2.97;0.60;;;14.70;42.20;;;;;;5092983;28;20119;-81
2021/09/19 06:37:05;;;;;;;3.15;0.60;;;14.80;30.20;;;;;;5092611;28;20197;-81
2021/09/19 06:39:31;;;;;;;2.65;0.50;;;14.80;21.10;;;;;;5092639;28;20040;-81
2021/09/19 06:41:58;;;;;;;3.17;0.63;;;14.80;26.70;;;;;;5092601;28;20061;-81
2021/09/19 06:44:24;;;;;;;3.92;0.70;;;14.90;24.10;;;;;;5092908;28;20040;-81
2021/09/19 06:46:52;;;;;;;1.38;0.60;;;15.00;20.90;;;;;;5092530;28;20119;-81
2021/09/19 06:49:18;;;;;;;2.60;0.55;;;15.00;29.80;;;;;;5092789;28;20140;-81
2021/09/19 06:51:43;;;;;;;2.88;0.80;;;15.00;26.60;;;;;;5091296;28;20510;-82
2021/09/19 06:54:09;;;;;;;1.40;0.50;;;15.10;22.60;;;;;;5092807;28;20047;-82
2021/09/19 06:56:35;;;;;;;2.45;0.60;;;15.10;20.90;;;;;;5091513;28;20477;-82
2021/09/19 06:59:01;;;;;;;3.03;0.63;;;15.20;25.60;;;;;;5091485;28;20085;-82
2021/09/19 07:01:27;;;;;;;2.60;0.70;;;15.30;5.60;;;;;;5089799;28;20028;-82
2021/09/19 07:03:53;;;;;;;2.85;0.60;;;15.30;11.40;;;;;;5091427;28;20556;-81
2021/09/19 07:06:18;;;;;;;2.70;0.70;;;15.40;18.70;;;;;;5092667;28;20063;-82
2021/09/19 07:08:45;;;;;;;2.28;0.82;;;15.30;8.90;;;;;;5091470;28;20040;-82
2021/09/19 07:11:12;;;;;;;3.35;0.85;;;15.30;13.50;;;;;;5092706;28;20044;-82
2021/09/19 07:13:38;;;;;;;1.33;0.55;;;15.40;1.00;;;;;;5092235;28;20032;-81
2021/09/19 07:16:04;;;;;;;4.38;0.65;;;15.50;2.90;;;;;;5094022;28;20039;-82
2021/09/19 07:18:30;;;;;;;3.75;0.80;;;15.60;15.00;;;;;;5095147;28;20375;-82
2021/09/19 07:20:56;;;;;;;2.40;0.90;;;15.60;11.70;;;;;;5094093;28;20040;-81
2021/09/19 07:23:24;;;;;;;6.03;1.20;;;15.60;11.30;;;;;;5094087;28;20047;-81
2021/09/19 07:25:51;;;;;;;4.60;1.27;;;15.60;9.70;;;;;;5091266;28;20055;-81
2021/09/19 07:28:17;;;;;;;2.08;0.60;;;15.60;9.40;;;;;;5091440;28;20104;-82
2021/09/19 07:30:43;;;;;;;4.40;0.70;;;15.90;1.00;;;;;;5093832;28;20417;-81
2021/09/19 07:33:09;;;;;;;3.13;0.70;;;15.90;1.00;;;;;;5094042;28;20114;-81
2021/09/19 07:35:35;;;;;;;3.20;0.80;;;15.90;1.00;;;;;;5092922;28;20163;-84
2021/09/19 07:38:03;;;;;;;3.10;0.93;;;15.90;1.00;;;;;;5093112;28;20067;-83
2021/09/19 07:40:29;;;;;;;3.35;0.70;;;16.00;1.00;;;;;;5091462;28;20036;-83
2021/09/19 07:42:59;;;;;;;7.95;3.80;;;16.00;1.00;;;;;;5091828;28;20032;-84
2021/09/19 07:45:29;;;;;;;2.10;0.90;;;16.10;1.00;;;;;;5095757;28;20040;-84
2021/09/19 07:47:55;;;;;;;3.72;1.27;;;16.20;1.00;;;;;;5094705;28;20043;-85
2021/09/19 07:50:21;;;;;;;4.25;0.88;;;16.30;1.00;;;;;;5095220;28;20028;-84
2021/09/19 07:52:47;;;;;;;4.13;0.95;;;16.40;1.00;;;;;;5095421;28;20502;-84
2021/09/19 07:55:16;;;;;;;2.53;0.50;;;16.30;1.00;;;;;;5096756;28;20037;-84
2021/09/19 07:57:43;;;;;;;1.80;0.70;;;16.30;1.00;;;;;;5096474;28;20043;-84
2021/09/19 08:00:09;;;;;;;1.95;0.60;;;16.50;1.00;;;;;;5095142;28;20044;-84
2021/09/19 08:02:35;;;;;;;3.17;0.90;;;16.50;1.00;;;;;;5095021;28;20036;-84
2021/09/19 08:05:01;;;;;;;3.05;0.77;;;16.50;1.00;;;;;;5095490;28;20032;-84
2021/09/19 08:07:27;;;;;;;3.67;1.20;;;16.50;1.00;;;;;;5095540;28;20036;-85
2021/09/19 08:09:53;;;;;;;3.33;1.77;;;16.40;1.00;;;;;;5095778;28;20036;-85
2021/09/19 08:12:19;;;;;;;6.18;1.55;;;16.40;1.00;;;;;;5095745;28;20165;-85
2021/09/19 08:14:45;;;;;;;4.13;1.52;;;16.40;1.00;;;;;;5095783;28;20046;-84
2021/09/19 08:17:11;;;;;;;6.18;2.50;;;16.30;1.00;;;;;;5096736;28;20039;-83
2021/09/19 08:19:37;;;;;;;6.20;2.25;;;16.30;1.90;;;;;;5095937;28;20040;-84
2021/09/19 08:22:03;;;;;;;3.58;1.10;;;16.30;13.50;;;;;;5088810;28;20031;-82
2021/09/19 08:24:29;;;;;;;3.25;0.93;;;16.50;8.50;;;;;;5088790;28;20051;-80
2021/09/19 08:26:55;;;;;;;3.63;1.58;;;16.90;1.00;;;;;;5093396;28;20498;-80
2021/09/19 08:29:22;;;;;;;5.85;2.30;;;16.80;1.00;;;;;;5094542;28;20047;-80
2021/09/19 08:31:50;;;;;;;10.18;6.35;;;16.90;1.00;;;;;;5092655;28;20503;-81
2021/09/19 08:34:16;;;;;;;5.78;3.60;;;16.90;1.00;;;;;;5093265;28;20040;-82
2021/09/19 08:36:42;;;;;;;7.25;2.67;;;17.10;1.00;;;;;;5095488;28;20036;-82
2021/09/19 08:39:08;;;;;;;5.65;1.45;;;17.10;1.00;;;;;;5095743;28;20040;-82
2021/09/19 08:41:36;;;;;;;3.78;1.00;;;17.20;1.00;;;;;;5095364;28;20058;-82
2021/09/19 08:44:02;;;;;;;5.03;0.82;;;17.30;1.00;;;;;;5095076;28;20047;-82
2021/09/19 08:46:29;;;;;;;2.88;0.98;;;17.50;1.00;;;;;;5093043;28;20028;-81
2021/09/19 08:48:55;;;;;;;2.58;0.70;;;17.40;1.00;;;;;;5093596;28;20050;-81
2021/09/19 08:51:21;;;;;;;4.93;0.75;;;17.20;1.00;;;;;;5093321;28;20123;-81
2021/09/19 08:53:47;;;;;;;3.05;0.95;;;17.20;1.00;;;;;;5092657;28;20067;-81
2021/09/19 08:56:22;;;;;;;3.15;0.77;;;17.40;1.00;;;;;;5093077;28;20036;-81
2021/09/19 08:58:48;;;;;;;2.17;1.00;;;17.40;1.00;;;;;;5099150;28;20052;-82
2021/09/19 09:01:14;;;;;;;3.85;1.20;;;17.40;1.00;;;;;;5092926;28;20139;-81
2021/09/19 09:03:40;;;;;;;4.50;0.88;;;17.30;1.00;;;;;;5093408;28;20463;-82
2021/09/19 09:06:08;;;;;;;4.05;0.93;;;17.10;1.00;;;;;;5092320;28;20051;-81
2021/09/19 09:08:34;;;;;;;1.70;0.43;;;17.20;1.00;;;;;;5093150;28;20066;-81
2021/09/19 09:11:03;;;;;;;3.08;0.70;;;17.20;1.00;;;;;;5101842;28;20035;-82
2021/09/19 09:13:36;;;;;;;4.13;0.82;;;17.30;1.00;;;;;;5113930;28;20122;-78
2021/09/19 09:16:15;;;;;;;2.88;0.75;;;17.60;1.00;;;;;;5113273;28;20054;-80
2021/09/19 09:18:42;;;;;;;2.08;0.57;;;17.60;1.00;;;;;;5092004;28;20041;-80
2021/09/19 09:21:13;;;;;;;2.47;0.75;;;17.80;1.00;;;;;;5094472;28;20535;-80
2021/09/19 09:23:42;;;;;;;1.35;0.75;;;17.60;1.00;;;;;;5093388;28;20521;-80
2021/09/19 09:26:15;;;;;;;1.05;0.52;;;17.70;1.00;;;;;;5094247;28;20032;-81
2021/09/19 09:29:06;;;;;;;1.27;0.50;;;17.50;2.70;;;;;;5092517;28;20538;-80
2021/09/19 09:31:41;;;;;;;1.73;0.43;;;17.50;1.00;;;;;;5079018;28;20047;-80
2021/09/19 09:34:19;;;;;;;2.92;0.70;;;17.80;1.60;;;;;;5093744;28;20045;-80
2021/09/19 09:36:53;;;;;;;0.88;0.40;;;18.00;10.00;;;;;;5090930;28;20044;-80
2021/09/19 09:39:34;;;;;;;1.95;0.50;;;18.20;1.00;;;;;;5082149;28;20040;-79
2021/09/19 09:42:20;;;;;;;1.45;0.50;;;18.10;1.00;;;;;;5092145;28;20085;-79
2021/09/19 09:44:48;;;;;;;2.65;0.68;;;18.10;1.50;;;;;;5090220;28;20576;-80
2021/09/19 09:47:18;;;;;;;2.50;0.85;;;18.10;1.00;;;;;;5090978;28;20039;-79
2021/09/19 09:49:51;;;;;;;2.67;0.63;;;18.00;1.00;;;;;;5088644;28;20044;-80
2021/09/19 09:52:25;;;;;;;0.90;0.70;;;17.90;1.00;;;;;;5092647;28;20039;-80
2021/09/19 09:55:00;;;;;;;0.70;0.40;;;17.60;1.00;;;;;;5093458;28;20524;-80
2021/09/19 09:57:35;;;;;;;1.67;0.60;;;17.40;1.00;;;;;;5079785;28;20052;-81
2021/09/19 10:00:08;;;;;;;1.65;0.60;;;17.70;1.00;;;;;;5093301;28;20032;-77
2021/09/19 10:02:35;;;;;;;1.88;0.55;;;17.80;1.00;;;;;;5090864;28;20123;-77
2021/09/19 10:05:01;;;;;;;1.33;0.50;;;18.00;1.00;;;;;;5091054;28;20039;-78
2021/09/19 10:07:27;;;;;;;1.13;0.52;;;17.90;1.00;;;;;;5091580;28;20123;-78
2021/09/19 10:09:53;;;;;;;2.50;0.73;;;18.00;1.00;;;;;;5092066;28;20068;-78
2021/09/19 10:12:21;;;;;;;2.42;0.60;;;17.90;1.00;;;;;;5091726;28;20032;-77
2021/09/19 10:14:51;;;;;;;4.50;1.08;;;17.80;1.00;;;;;;5090514;28;20139;-78
2021/09/19 10:17:21;;;;;;;2.60;0.73;;;17.80;3.90;;;;;;5091696;28;20118;-77
2021/09/19 10:19:48;;;;;;;3.50;0.85;;;17.90;1.00;;;;;;5092111;28;20043;-77
2021/09/19 10:22:23;;;;;;;3.70;1.17;;;18.00;1.00;;;;;;5092769;28;20036;-78
2021/09/19 10:24:49;;;;;;;2.92;0.80;;;18.20;4.50;;;;;;5091430;28;20044;-77
2021/09/19 10:27:22;;;;;;;2.75;0.55;;;18.20;4.80;;;;;;5091136;28;20058;-77
2021/09/19 10:29:59;;;;;;;6.18;0.77;;;18.10;1.00;;;;;;5091916;28;20039;-78
2021/09/19 10:32:38;;;;;;;2.00;0.60;;;18.10;1.00;;;;;;5091194;28;20032;-79
2021/09/19 10:35:28;;;;;;;1.85;0.65;;;17.90;15.80;;;;;;5108745;28;20043;-78
2021/09/19 10:37:54;;;;;;;2.28;0.70;;;17.80;2.00;;;;;;5070060;28;20036;-78
2021/09/19 10:40:32;;;;;;;4.65;1.02;;;17.50;11.50;;;;;;5090106;28;20043;-77
2021/09/19 10:42:58;;;;;;;5.35;1.02;;;17.40;1.00;;;;;;5089886;28;20123;-77
2021/09/19 10:45:42;;;;;;;3.90;0.82;;;17.30;1.00;;;;;;5092279;28;20420;-77
2021/09/19 10:48:18;;;;;;;3.92;1.00;;;17.30;1.00;;;;;;5089647;28;20052;-76
2021/09/19 10:51:00;;;;;;;2.95;0.73;;;17.40;1.00;;;;;;5086699;28;20099;-77
2021/09/19 10:53:26;;;;;;;6.45;1.10;;;17.30;1.00;;;;;;5089184;28;20447;-76
2021/09/19 10:55:52;;;;;;;3.85;1.10;;;17.40;1.00;;;;;;5090833;28;20075;-76
2021/09/19 10:58:22;;;;;;;3.72;1.20;;;17.70;1.00;;;;;;5090574;28;20036;-75
2021/09/19 11:01:10;;;;;;;4.53;1.05;;;18.10;1.00;;;;;;5091528;28;20639;-75
2021/09/19 11:03:37;;;;;;;5.10;1.23;;;18.20;1.00;;;;;;5093366;28;20052;-75
2021/09/19 11:06:03;;;;;;;2.70;0.80;;;18.10;1.00;;;;;;5092707;28;20060;-75
2021/09/19 11:08:38;;;;;;;5.53;1.15;;;17.90;1.00;;;;;;5092371;28;20047;-75
2021/09/19 11:11:05;;;;;;;6.28;1.35;;;18.00;1.00;;;;;;5093153;28;20036;-74
2021/09/19 11:13:52;;;;;;;4.80;1.30;;;18.20;1.00;;;;;;5093109;28;20035;-75
2021/09/19 11:16:36;;;;;;;4.80;1.20;;;18.20;1.00;;;;;;5092583;28;20058;-75
2021/09/19 11:19:05;;;;;;;1.95;0.70;;;18.60;1.00;;;;;;5097405;28;20126;-73
2021/09/19 11:21:34;;;;;;;2.30;0.70;;;18.80;1.00;;;;;;5098290;28;20518;-74
2021/09/19 11:24:04;;;;;;;5.07;1.10;;;18.80;1.00;;;;;;5097026;28;20035;-75
2021/09/19 11:26:36;;;;;;;2.72;0.85;;;18.70;1.00;;;;;;5099133;28;20043;-75
2021/09/19 11:29:08;;;;;;;2.97;0.70;;;18.60;1.00;;;;;;5096321;28;20050;-75
2021/09/19 11:31:35;;;;;;;3.67;0.70;;;18.40;1.00;;;;;;5096579;28;20044;-75
2021/09/19 11:34:06;;;;;;;2.33;0.50;;;18.40;1.00;;;;;;5095906;28;20119;-75
2021/09/19 11:36:33;;;;;;;0.88;0.60;;;18.40;1.00;;;;;;5091209;28;20151;-74
2021/09/19 11:38:59;;;;;;;3.55;0.90;;;18.20;1.00;;;;;;5094135;28;20043;-75
2021/09/19 11:41:27;;;;;;;2.90;0.77;;;18.10;1.00;;;;;;5092593;28;20123;-76
2021/09/19 11:43:55;;;;;;;2.67;0.85;;;18.20;1.00;;;;;;5080513;28;20067;-75
2021/09/19 11:46:24;;;;;;;2.83;1.00;;;18.60;1.00;;;;;;5087531;28;20511;-75
2021/09/19 11:48:50;;;;;;;4.00;0.90;;;18.90;1.00;;;;;;5092024;28;20201;-76
2021/09/19 11:51:17;;;;;;;2.13;0.98;;;18.90;1.00;;;;;;5093538;28;20119;-76
2021/09/19 11:53:50;;;;;;;5.10;0.98;;;19.10;1.00;;;;;;5093210;28;20031;-74
2021/09/19 11:56:17;;;;;;;4.47;0.90;;;19.00;1.00;;;;;;5096284;28;20046;-74
2021/09/19 11:58:44;;;;;;;2.10;0.60;;;18.80;1.00;;;;;;5096483;28;20483;-73
2021/09/19 12:01:10;;;;;;;2.75;0.80;;;18.40;1.00;;;;;;5097018;28;20040;-74
2021/09/19 12:03:36;;;;;;;3.85;0.80;;;18.50;1.00;;;;;;5098477;28;20146;-75
2021/09/19 12:06:02;;;;;;;4.15;0.70;;;18.60;1.00;;;;;;5105243;28;20075;-74
2021/09/19 12:08:31;;;;;;;1.67;0.80;;;18.40;1.00;;;;;;5096802;28;20048;-74
2021/09/19 12:10:58;;;;;;;2.15;0.80;;;18.40;1.00;;;;;;5095984;28;20383;-75
2021/09/19 12:13:29;;;;;;;3.50;0.68;;;18.30;1.00;;;;;;5096748;28;20131;-75
2021/09/19 12:16:22;;;;;;;1.65;0.63;;;18.20;1.00;;;;;;5096858;28;20063;-75
2021/09/19 12:18:50;;;;;;;3.28;0.82;;;18.30;1.00;;;;;;5095232;28;20043;-74
2021/09/19 12:21:19;;;;;;;2.10;1.00;;;18.40;1.00;;;;;;5095960;28;20567;-75
2021/09/19 12:23:46;;;;;;;4.78;0.85;;;18.60;1.00;;;;;;5096400;28;20117;-75
2021/09/19 12:26:42;;;;;;;1.20;0.65;;;18.60;1.00;;;;;;5096120;28;20044;-75
2021/09/19 12:29:08;;;;;;;2.58;0.90;;;18.60;1.00;;;;;;5076968;28;20139;-75
2021/09/19 12:31:45;;;;;;;4.72;1.10;;;18.50;1.00;;;;;;5096784;28;20075;-75
2021/09/19 12:34:16;;;;;;;2.40;0.88;;;18.60;1.00;;;;;;5096688;28;20040;-75
2021/09/19 12:36:48;;;;;;;3.88;0.88;;;18.40;1.00;;;;;;5096648;28;20098;-75
2021/09/19 12:39:15;;;;;;;3.05;0.90;;;18.10;1.00;;;;;;5096415;28;20036;-76
2021/09/19 12:41:42;;;;;;;4.57;1.10;;;17.90;1.00;;;;;;5085583;28;20045;-75
2021/09/19 12:44:22;;;;;;;3.63;1.08;;;17.90;1.00;;;;;;5085095;28;20043;-75
2021/09/19 12:46:53;;;;;;;5.23;1.00;;;18.00;1.00;;;;;;5091277;28;20093;-75
2021/09/19 12:49:26;;;;;;;5.93;0.90;;;18.10;1.00;;;;;;5093055;28;20144;-74
2021/09/19 12:52:15;;;;;;;6.13;1.58;;;18.40;1.00;;;;;;5093283;28;20543;-74
2021/09/19 12:54:54;;;;;;;4.35;1.20;;;18.60;1.00;;;;;;5091172;28;20047;-73
2021/09/19 12:57:22;;;;;;;4.28;1.80;;;18.80;1.00;;;;;;5091697;28;20047;-73